createdAt,value
2017-11-11T00:02:12.369Z,96653.13
2017-11-11T00:04:38.920Z,96660.94
2017-11-11T00:07:05.019Z,96660.08
2017-11-11T00:09:31.128Z,96665.95
2017-11-11T00:11:57.215Z,96670.84
2017-11-11T00:14:23.315Z,96670.42
2017-11-11T00:16:49.444Z,96664.16
2017-11-11T00:19:15.545Z,96666.25
2017-11-11T00:21:41.638Z,96659.66
2017-11-11T00:24:07.771Z,96667.36
2017-11-11T00:26:33.851Z,96673.13
2017-11-11T00:28:59.927Z,96665.72
2017-11-11T00:31:26.018Z,96672.47
2017-11-11T00:33:52.111Z,96666.61
2017-11-11T00:36:18.276Z,96672.09
2017-11-11T00:38:45.221Z,96679.41
2017-11-11T00:41:11.342Z,96686.36
2017-11-11T00:43:37.404Z,96689.12
2017-11-11T00:46:03.508Z,96690.63
2017-11-11T00:48:29.618Z,96692.80
2017-11-11T00:50:55.732Z,96691.70
2017-11-11T00:53:21.822Z,96692.49
2017-11-11T00:55:47.978Z,96689.66
2017-11-11T00:58:14.107Z,96685.17
2017-11-11T01:00:40.280Z,96681.19
2017-11-11T01:03:06.364Z,96688.23
2017-11-11T01:05:32.429Z,96689.18
2017-11-11T01:07:58.511Z,96687.90
2017-11-11T01:10:24.583Z,96688.98
2017-11-11T01:12:50.651Z,96683.64
2017-11-11T01:15:16.745Z,96685.36
2017-11-11T01:17:42.863Z,96682.94
2017-11-11T01:20:08.960Z,96690.28
2017-11-11T01:22:34.988Z,96686.66
2017-11-11T01:25:01.067Z,96683.84
2017-11-11T01:27:27.163Z,96680.10
2017-11-11T01:29:53.244Z,96679.55
2017-11-11T01:32:19.308Z,96687.95
2017-11-11T01:34:45.396Z,96681.02
2017-11-11T01:37:11.508Z,96672.03
2017-11-11T01:39:37.602Z,96663.52
2017-11-11T01:42:03.698Z,96667.03
2017-11-11T01:44:29.816Z,96666.59
2017-11-11T01:46:55.855Z,96670.95
2017-11-11T01:49:21.954Z,96670.21
2017-11-11T01:51:48.123Z,96669.59
2017-11-11T01:54:14.226Z,96668.20
2017-11-11T01:56:40.368Z,96666.77
2017-11-11T01:59:06.447Z,96661.54
2017-11-11T02:01:32.547Z,96661.28
2017-11-11T02:03:58.733Z,96658.97
2017-11-11T02:06:24.758Z,96665.73
2017-11-11T02:08:50.868Z,96661.23
2017-11-11T02:11:16.952Z,96668.64
2017-11-11T02:13:42.984Z,96670.34
2017-11-11T02:16:09.087Z,96666.44
2017-11-11T02:18:35.155Z,96669.56
2017-11-11T02:21:01.260Z,96671.30
2017-11-11T02:23:27.312Z,96669.72
2017-11-11T02:25:53.347Z,96676.66
2017-11-11T02:28:19.388Z,96671.47
2017-11-11T02:30:45.443Z,96665.61
2017-11-11T02:33:11.483Z,96672.39
2017-11-11T02:35:37.621Z,96670.83
2017-11-11T02:38:03.671Z,96675.00
2017-11-11T02:40:29.793Z,96675.37
2017-11-11T02:42:55.969Z,96675.90
2017-11-11T02:45:22.027Z,96675.64
2017-11-11T02:47:48.093Z,96669.19
2017-11-11T02:50:14.237Z,96674.30
2017-11-11T02:52:40.436Z,96681.88
2017-11-11T02:55:06.487Z,96679.70
2017-11-11T02:57:32.596Z,96677.57
2017-11-11T02:59:58.684Z,96674.57
2017-11-11T03:02:24.780Z,96667.90
2017-11-11T03:04:50.872Z,96668.75
2017-11-11T03:07:16.971Z,96662.83
2017-11-11T03:09:43.036Z,96658.22
2017-11-11T03:12:09.212Z,96657.92
2017-11-11T03:14:35.327Z,96658.92
2017-11-11T03:17:01.345Z,96651.35
2017-11-11T03:19:27.451Z,96655.95
2017-11-11T03:21:53.634Z,96657.75
2017-11-11T03:24:19.721Z,96650.30
2017-11-11T03:26:45.796Z,96651.88
2017-11-11T03:29:11.882Z,96640.89
2017-11-11T03:31:38.048Z,96630.85
2017-11-11T03:34:04.142Z,96623.95
2017-11-11T03:36:30.251Z,96615.72
2017-11-11T03:38:56.338Z,96609.45
2017-11-11T03:41:22.462Z,96635.23
2017-11-11T03:43:48.548Z,96641.69
2017-11-11T03:46:14.657Z,96647.30
2017-11-11T03:48:40.759Z,96647.47
2017-11-11T03:51:06.871Z,96652.67
2017-11-11T03:53:33.019Z,96656.57
2017-11-11T03:55:59.103Z,96656.13
2017-11-11T03:58:25.210Z,96656.27
2017-11-11T04:00:51.259Z,96653.99
2017-11-11T04:03:17.317Z,96651.61
2017-11-11T04:05:43.398Z,96646.71
2017-11-11T04:08:09.519Z,96644.06
2017-11-11T04:10:35.651Z,96647.94
2017-11-11T04:13:02.056Z,96643.20
2017-11-11T04:15:28.203Z,96640.34
2017-11-11T04:17:54.277Z,96634.69
2017-11-11T04:20:20.439Z,96637.95
2017-11-11T04:22:46.531Z,96624.45
2017-11-11T04:25:12.619Z,96647.87
2017-11-11T04:27:38.680Z,96638.64
2017-11-11T04:30:04.789Z,96642.28
2017-11-11T04:32:30.914Z,96638.64
2017-11-11T04:34:57.026Z,96645.05
2017-11-11T04:37:23.105Z,96640.06
2017-11-11T04:39:49.179Z,96643.70
2017-11-11T04:42:15.272Z,96643.73
2017-11-11T04:44:41.336Z,96634.44
2017-11-11T04:47:07.473Z,96634.02
2017-11-11T04:49:33.636Z,96632.99
2017-11-11T04:51:59.764Z,96638.36
2017-11-11T04:54:25.913Z,96639.53
2017-11-11T04:56:52.037Z,96637.05
2017-11-11T04:59:18.191Z,96648.69
2017-11-11T05:01:44.236Z,96640.59
2017-11-11T05:04:10.335Z,96648.97
2017-11-11T05:06:36.393Z,96656.00
2017-11-11T05:09:02.521Z,96645.57
2017-11-11T05:11:28.599Z,96654.84
2017-11-11T05:13:54.755Z,96648.55
2017-11-11T05:16:20.901Z,96652.89
2017-11-11T05:18:46.988Z,96645.43
2017-11-11T05:21:13.116Z,96639.28
2017-11-11T05:23:39.235Z,96630.52
2017-11-11T05:26:05.304Z,96639.28
2017-11-11T05:28:31.451Z,96646.57
2017-11-11T05:30:57.730Z,96636.52
2017-11-11T05:33:23.840Z,96630.77
2017-11-11T05:35:49.944Z,96627.27
2017-11-11T05:38:16.002Z,96628.95
2017-11-11T05:40:42.351Z,96618.86
2017-11-11T05:43:08.417Z,96616.13
2017-11-11T05:45:34.476Z,96613.90
2017-11-11T05:48:00.594Z,96614.67
2017-11-11T05:50:26.666Z,96608.42
2017-11-11T05:52:52.768Z,96615.73
2017-11-11T05:55:18.915Z,96604.22
2017-11-11T05:57:44.955Z,96609.09
2017-11-11T06:00:10.999Z,96607.78
2017-11-11T06:02:37.097Z,96607.22
2017-11-11T06:05:03.211Z,96615.66
2017-11-11T06:07:29.323Z,96615.69
2017-11-11T06:09:55.442Z,96622.50
2017-11-11T06:12:21.575Z,96619.50
2017-11-11T06:14:47.679Z,96613.91
2017-11-11T06:17:13.819Z,96620.05
2017-11-11T06:19:40.000Z,96621.64
2017-11-11T06:22:06.215Z,96620.50
2017-11-11T06:24:32.528Z,96612.91
2017-11-11T06:26:58.654Z,96613.83
2017-11-11T06:29:24.850Z,96604.67
2017-11-11T06:31:51.027Z,96607.40
2017-11-11T06:34:17.154Z,96615.49
2017-11-11T06:36:43.318Z,96610.38
2017-11-11T06:39:09.483Z,96623.28
2017-11-11T06:41:35.586Z,96605.64
2017-11-11T06:44:01.765Z,96609.93
2017-11-11T06:46:27.971Z,96611.09
2017-11-11T06:48:54.076Z,96605.89
2017-11-11T06:51:20.243Z,96593.59
2017-11-11T06:53:46.380Z,96590.38
2017-11-11T06:56:12.519Z,96580.55
2017-11-11T06:58:38.683Z,96583.83
2017-11-11T07:01:04.780Z,96580.16
2017-11-11T07:03:30.917Z,96583.83
2017-11-11T07:05:57.039Z,96581.47
2017-11-11T07:08:23.195Z,96585.19
2017-11-11T07:10:49.308Z,96589.08
2017-11-11T07:13:15.465Z,96586.05
2017-11-11T07:15:41.680Z,96585.09
2017-11-11T07:18:07.770Z,96590.55
2017-11-11T07:20:33.877Z,96571.66
2017-11-11T07:23:00.011Z,96572.16
2017-11-11T07:25:26.155Z,96559.93
2017-11-11T07:27:52.269Z,96581.44
2017-11-11T07:30:18.374Z,96590.66
2017-11-11T07:32:44.496Z,96585.00
2017-11-11T07:35:10.612Z,96573.97
2017-11-11T07:37:36.815Z,96582.31
2017-11-11T07:40:02.947Z,96574.49
2017-11-11T07:42:29.043Z,96574.31
2017-11-11T07:44:55.183Z,96571.66
2017-11-11T07:47:21.284Z,96565.86
2017-11-11T07:49:47.356Z,96560.58
2017-11-11T07:52:13.506Z,96571.40
2017-11-11T07:54:39.654Z,96576.70
2017-11-11T07:57:05.774Z,96572.45
2017-11-11T07:59:31.860Z,96569.01
2017-11-11T08:01:57.956Z,96570.03
2017-11-11T08:04:24.123Z,96568.54
2017-11-11T08:06:50.199Z,96574.84
2017-11-11T08:09:16.411Z,96569.41
2017-11-11T08:11:42.528Z,96568.54
2017-11-11T08:14:08.638Z,96575.62
2017-11-11T08:16:34.880Z,96574.12
2017-11-11T08:19:00.981Z,96567.34
2017-11-11T08:21:27.076Z,96571.13
2017-11-11T08:23:53.289Z,96565.14
2017-11-11T08:26:19.388Z,96560.30
2017-11-11T08:28:45.546Z,96566.27
2017-11-11T08:31:11.716Z,96561.99
2017-11-11T08:33:37.876Z,96559.58
2017-11-11T08:36:04.040Z,96562.86
2017-11-11T08:38:33.722Z,96555.21
2017-11-11T08:40:59.981Z,96551.16
2017-11-11T08:43:26.167Z,96554.50
2017-11-11T08:45:52.305Z,96551.98
2017-11-11T08:48:18.523Z,96556.69
2017-11-11T08:50:45.059Z,96551.55
2017-11-11T08:53:11.209Z,96543.26
2017-11-11T08:55:37.342Z,96552.66
2017-11-11T08:58:03.449Z,96550.81
2017-11-11T09:00:29.562Z,96544.62
2017-11-11T09:02:55.738Z,96539.52
2017-11-11T09:05:21.841Z,96537.69
2017-11-11T09:07:47.946Z,96531.52
2017-11-11T09:10:14.066Z,96531.32
2017-11-11T09:12:40.285Z,96528.75
2017-11-11T09:15:06.408Z,96519.19
2017-11-11T09:17:32.599Z,96530.35
2017-11-11T09:19:58.872Z,96525.94
2017-11-11T09:22:24.973Z,96532.44
2017-11-11T09:24:51.416Z,96529.66
2017-11-11T09:27:17.525Z,96521.91
2017-11-11T09:29:43.637Z,96516.23
2017-11-11T09:32:09.981Z,96510.84
2017-11-11T09:34:36.117Z,96505.55
2017-11-11T09:37:02.388Z,96503.70
2017-11-11T09:39:28.485Z,96499.14
2017-11-11T09:41:54.532Z,96498.52
2017-11-11T09:44:20.718Z,96502.87
2017-11-11T09:46:46.851Z,96504.83
2017-11-11T09:52:05.489Z,96493.70
2017-11-11T09:54:31.653Z,96492.48
2017-11-11T09:56:57.783Z,96483.52
2017-11-11T09:59:23.885Z,96473.08
2017-11-11T10:01:50.317Z,96480.07
2017-11-11T10:04:16.832Z,96465.27
2017-11-11T10:06:42.982Z,96467.53
2017-11-11T10:09:09.089Z,96460.30
2017-11-11T10:11:35.153Z,96460.40
2017-11-11T10:14:01.286Z,96455.11
2017-11-11T10:16:27.408Z,96455.02
2017-11-11T10:18:53.818Z,96453.02
2017-11-11T10:21:20.980Z,96441.95
2017-11-11T10:23:47.079Z,96445.02
2017-11-11T10:26:13.200Z,96438.95
2017-11-11T10:28:39.334Z,96434.41
2017-11-11T10:31:05.486Z,96428.05
2017-11-11T10:33:31.632Z,96424.22
2017-11-11T10:35:57.712Z,96424.06
2017-11-11T10:38:23.835Z,96422.61
2017-11-11T10:40:49.948Z,96423.75
2017-11-11T10:43:16.427Z,96411.14
2017-11-11T10:45:42.537Z,96398.71
2017-11-11T10:48:08.652Z,96401.67
2017-11-11T10:50:34.767Z,96395.65
2017-11-11T10:53:00.936Z,96400.36
2017-11-11T10:55:27.167Z,96398.52
2017-11-11T10:57:53.436Z,96403.61
2017-11-11T11:00:19.673Z,96395.41
2017-11-11T11:02:46.057Z,96395.00
2017-11-11T11:05:12.170Z,96386.80
2017-11-11T11:07:38.319Z,96385.16
2017-11-11T11:10:04.412Z,96384.83
2017-11-11T11:12:30.474Z,96389.73
2017-11-11T11:14:56.645Z,96384.40
2017-11-11T11:17:23.073Z,96381.80
2017-11-11T11:19:49.203Z,96380.98
2017-11-11T11:22:15.324Z,96367.09
2017-11-11T11:24:41.496Z,96370.11
2017-11-11T11:27:07.907Z,96369.86
2017-11-11T11:29:34.087Z,96356.75
2017-11-11T11:32:00.264Z,96354.70
2017-11-11T11:34:26.452Z,96346.07
2017-11-11T11:36:52.672Z,96344.42
2017-11-11T11:39:18.804Z,96345.92
2017-11-11T11:41:44.921Z,96341.30
2017-11-11T11:44:11.044Z,96340.92
2017-11-11T11:46:37.172Z,96328.85
2017-11-11T11:49:03.324Z,96319.59
2017-11-11T11:51:29.427Z,96313.46
2017-11-11T11:53:55.545Z,96297.98
2017-11-11T11:56:21.725Z,96297.30
2017-11-11T11:58:47.847Z,96288.00
2017-11-11T12:01:14.037Z,96286.42
2017-11-11T12:03:40.179Z,96279.25
2017-11-11T12:06:06.304Z,96273.86
2017-11-11T12:08:32.418Z,96271.64
2017-11-11T12:10:58.541Z,96268.97
2017-11-11T12:13:24.680Z,96267.21
2017-11-11T12:15:50.785Z,96260.77
2017-11-11T12:18:16.853Z,96253.59
2017-11-11T12:20:43.049Z,96248.45
2017-11-11T12:23:09.160Z,96247.52
2017-11-11T12:25:35.234Z,96244.96
2017-11-11T12:28:01.387Z,96240.16
2017-11-11T12:30:27.505Z,96230.34
2017-11-11T12:32:53.706Z,96225.13
2017-11-11T12:35:19.798Z,96216.11
2017-11-11T12:37:45.924Z,96210.03
2017-11-11T12:40:12.072Z,96202.00
2017-11-11T12:42:38.207Z,96198.13
2017-11-11T12:45:04.622Z,96200.15
2017-11-11T12:47:30.736Z,96192.08
2017-11-11T12:49:57.222Z,96181.95
2017-11-11T12:52:23.374Z,96176.89
2017-11-11T12:54:49.543Z,96174.03
2017-11-11T12:57:15.687Z,96162.41
2017-11-11T12:59:41.788Z,96166.48
2017-11-11T13:02:07.949Z,96147.45
2017-11-11T13:04:34.101Z,96146.14
2017-11-11T13:07:00.246Z,96145.52
2017-11-11T13:09:26.419Z,96142.38
2017-11-11T13:11:52.546Z,96133.36
2017-11-11T13:14:18.707Z,96131.27
2017-11-11T13:16:44.897Z,96120.23
2017-11-11T13:19:11.059Z,96113.22
2017-11-11T13:21:37.219Z,96103.34
2017-11-11T13:24:07.837Z,96103.91
2017-11-11T13:26:33.996Z,96094.89
2017-11-11T13:29:00.116Z,96087.11
2017-11-11T13:31:26.299Z,96080.71
2017-11-11T13:33:52.447Z,96076.33
2017-11-11T13:36:18.550Z,96074.74
2017-11-11T13:38:44.644Z,96069.92
2017-11-11T13:41:10.747Z,96062.13
2017-11-11T13:43:36.892Z,96064.20
2017-11-11T13:46:03.076Z,96059.67
2017-11-11T13:48:29.171Z,96052.61
2017-11-11T13:50:55.325Z,96051.54
2017-11-11T13:53:21.459Z,96049.23
2017-11-11T13:55:47.573Z,96047.78
2017-11-11T13:58:13.716Z,96048.31
2017-11-11T14:00:39.820Z,96050.11
2017-11-11T14:03:06.574Z,96043.47
2017-11-11T14:05:32.768Z,96039.47
2017-11-11T14:07:58.896Z,96039.44
2017-11-11T14:10:25.112Z,96036.66
2017-11-11T14:12:51.251Z,96040.75
2017-11-11T14:15:17.393Z,96035.00
2017-11-11T14:17:43.575Z,96034.73
2017-11-11T14:20:09.664Z,96028.02
2017-11-11T14:22:35.732Z,96023.79
2017-11-11T14:25:01.834Z,96025.33
2017-11-11T14:27:27.992Z,96013.88
2017-11-11T14:29:54.084Z,96006.94
2017-11-11T14:32:20.227Z,96003.97
2017-11-11T14:34:46.408Z,95996.45
2017-11-11T14:37:12.550Z,95991.47
2017-11-11T14:39:38.684Z,95986.08
2017-11-11T14:42:04.797Z,95985.08
2017-11-11T14:44:31.052Z,95982.08
2017-11-11T14:46:57.221Z,95980.76
2017-11-11T14:49:23.302Z,95976.14
2017-11-11T14:51:49.460Z,95966.20
2017-11-11T14:54:15.579Z,95969.20
2017-11-11T14:56:41.731Z,95963.88
2017-11-11T14:59:07.919Z,95958.64
2017-11-11T15:01:34.028Z,95949.75
2017-11-11T15:04:00.172Z,95949.77
2017-11-11T15:06:26.348Z,95946.29
2017-11-11T15:08:52.529Z,95937.95
2017-11-11T15:11:18.682Z,95939.20
2017-11-11T15:13:44.828Z,95940.89
2017-11-11T15:16:11.053Z,95932.34
2017-11-11T15:18:37.214Z,95929.33
2017-11-11T15:21:03.299Z,95929.25
2017-11-11T15:23:29.448Z,95919.61
2017-11-11T15:25:55.566Z,95918.04
2017-11-11T15:28:21.762Z,95917.50
2017-11-11T15:30:47.915Z,95913.48
2017-11-11T15:33:14.056Z,95917.66
2017-11-11T15:35:40.236Z,95906.23
2017-11-11T15:38:06.296Z,95907.55
2017-11-11T15:40:32.793Z,95911.17
2017-11-11T15:42:58.920Z,95909.02
2017-11-11T15:45:25.037Z,95894.13
2017-11-11T15:47:51.384Z,95896.44
2017-11-11T15:50:17.488Z,95894.67
2017-11-11T15:52:43.607Z,95887.34
2017-11-11T15:55:09.722Z,95887.03
2017-11-11T15:57:35.915Z,95877.93
2017-11-11T16:00:02.231Z,95880.16
2017-11-11T16:02:28.432Z,95877.23
2017-11-11T16:04:54.524Z,95878.39
2017-11-11T16:07:20.660Z,95871.30
2017-11-11T16:09:46.797Z,95869.14
2017-11-11T16:12:12.921Z,95865.52
2017-11-11T16:14:39.037Z,95864.51
2017-11-11T16:17:05.174Z,95860.88
2017-11-11T16:19:31.277Z,95858.41
2017-11-11T16:21:57.360Z,95858.49
2017-11-11T16:24:23.480Z,95850.06
2017-11-11T16:26:49.652Z,95850.62
2017-11-11T16:29:15.788Z,95847.31
2017-11-11T16:31:41.959Z,95850.47
2017-11-11T16:34:08.069Z,95838.67
2017-11-11T16:36:34.186Z,95846.77
2017-11-11T16:39:00.291Z,95842.53
2017-11-11T16:41:26.383Z,95837.90
2017-11-11T16:43:52.508Z,95837.36
2017-11-11T16:46:18.530Z,95835.73
2017-11-11T16:48:44.662Z,95831.73
2017-11-11T16:51:10.786Z,95829.49
2017-11-11T16:53:36.943Z,95820.85
2017-11-11T16:56:03.139Z,95821.01
2017-11-11T16:58:29.196Z,95822.85
2017-11-11T17:00:55.330Z,95812.44
2017-11-11T17:03:21.480Z,95808.20
2017-11-11T17:05:47.599Z,95807.73
2017-11-11T17:08:13.819Z,95810.82
2017-11-11T17:10:39.915Z,95811.59
2017-11-11T17:13:06.109Z,95808.12
2017-11-11T17:15:32.249Z,95807.14
2017-11-11T17:17:58.374Z,95804.67
2017-11-11T17:20:24.561Z,95799.12
2017-11-11T17:22:50.680Z,95798.19
2017-11-11T17:25:16.798Z,95795.72
2017-11-11T17:27:42.987Z,95799.81
2017-11-11T17:30:09.128Z,95791.25
2017-11-11T17:32:35.219Z,95804.67
2017-11-11T17:35:01.285Z,95798.34
2017-11-11T17:37:27.435Z,95793.41
2017-11-11T17:39:53.530Z,95789.08
2017-11-11T17:42:19.648Z,95796.55
2017-11-11T17:44:45.756Z,95796.94
2017-11-11T17:47:11.935Z,95793.11
2017-11-11T17:49:38.084Z,95793.37
2017-11-11T17:52:04.211Z,95792.88
2017-11-11T17:54:30.350Z,95786.94
2017-11-11T17:56:56.514Z,95792.05
2017-11-11T17:59:22.612Z,95798.84
2017-11-11T18:01:48.824Z,95793.44
2017-11-11T18:04:14.988Z,95795.67
2017-11-11T18:06:41.112Z,95796.83
2017-11-11T18:09:07.433Z,95803.07
2017-11-11T18:11:33.500Z,95798.13
2017-11-11T18:13:59.629Z,95800.23
2017-11-11T18:16:25.823Z,95791.27
2017-11-11T18:18:51.987Z,95796.58
2017-11-11T18:21:18.077Z,95791.28
2017-11-11T18:23:44.234Z,95791.58
2017-11-11T18:26:10.308Z,95793.98
2017-11-11T18:28:36.432Z,95799.30
2017-11-11T18:31:02.567Z,95797.91
2017-11-11T18:33:28.605Z,95804.69
2017-11-11T18:35:54.710Z,95810.80
2017-11-11T18:38:20.816Z,95803.63
2017-11-11T18:40:46.937Z,95808.23
2017-11-11T18:43:13.137Z,95812.80
2017-11-11T18:45:39.468Z,95813.27
2017-11-11T18:48:05.650Z,95811.73
2017-11-11T18:50:31.771Z,95821.30
2017-11-11T18:52:57.944Z,95816.28
2017-11-11T18:55:24.161Z,95819.44
2017-11-11T18:57:50.311Z,95826.08
2017-11-11T19:00:16.432Z,95816.65
2017-11-11T19:02:42.556Z,95821.59
2017-11-11T19:05:08.721Z,95821.59
2017-11-11T19:07:34.890Z,95832.55
2017-11-11T19:10:01.204Z,95832.02
2017-11-11T19:12:27.356Z,95828.53
2017-11-11T19:14:53.488Z,95831.92
2017-11-11T19:17:19.633Z,95835.95
2017-11-11T19:19:45.778Z,95831.63
2017-11-11T19:22:11.865Z,95831.02
2017-11-11T19:24:38.145Z,95839.72
2017-11-11T19:27:04.316Z,95846.45
2017-11-11T19:29:30.504Z,95845.36
2017-11-11T19:31:57.233Z,95838.49
2017-11-11T19:34:23.406Z,95842.14
2017-11-11T19:36:49.607Z,95833.64
2017-11-11T19:39:15.777Z,95831.78
2017-11-11T19:41:41.933Z,95831.95
2017-11-11T19:44:08.098Z,95830.84
2017-11-11T19:46:34.239Z,95834.55
2017-11-11T19:49:00.795Z,95831.77
2017-11-11T19:51:27.012Z,95834.48
2017-11-11T19:53:53.243Z,95833.49
2017-11-11T19:56:19.769Z,95832.09
2017-11-11T19:58:46.050Z,95830.17
2017-11-11T20:01:12.303Z,95831.39
2017-11-11T20:03:38.707Z,95831.30
2017-11-11T20:06:04.997Z,95835.27
2017-11-11T20:08:31.606Z,95828.94
2017-11-11T20:10:57.881Z,95833.27
2017-11-11T20:13:24.086Z,95842.44
2017-11-11T20:15:50.333Z,95837.66
2017-11-11T20:18:16.536Z,95844.36
2017-11-11T20:20:43.245Z,95845.23
2017-11-11T20:23:09.498Z,95844.06
2017-11-11T20:25:35.721Z,95841.91
2017-11-11T20:28:02.343Z,95844.15
2017-11-11T20:30:28.895Z,95852.02
2017-11-11T20:32:55.180Z,95849.38
2017-11-11T20:35:21.874Z,95844.12
2017-11-11T20:37:48.111Z,95848.63
2017-11-11T20:40:14.435Z,95853.31
2017-11-11T20:42:41.120Z,95856.77
2017-11-11T20:45:07.451Z,95867.06
2017-11-11T20:47:33.634Z,95863.73
2017-11-11T20:50:00.457Z,95872.09
2017-11-11T20:52:26.770Z,95888.69
2017-11-11T20:54:53.115Z,95891.16
2017-11-11T20:57:19.755Z,95894.70
2017-11-11T20:59:45.993Z,95896.41
2017-11-11T21:02:12.259Z,95898.56
2017-11-11T21:04:38.581Z,95903.05
2017-11-11T21:07:04.863Z,95911.77
2017-11-11T21:09:31.566Z,95917.88
2017-11-11T21:11:57.727Z,95913.69
2017-11-11T21:14:23.948Z,95909.83
2017-11-11T21:16:50.406Z,95914.06
2017-11-11T21:19:16.529Z,95931.22
2017-11-11T21:21:42.775Z,95928.28
2017-11-11T21:24:09.259Z,95931.04
2017-11-11T21:26:35.525Z,95938.83
2017-11-11T21:29:01.716Z,95947.71
2017-11-11T21:31:28.222Z,95942.39
2017-11-11T21:33:54.471Z,95944.59
2017-11-11T21:36:20.726Z,95948.41
2017-11-11T21:38:47.302Z,95960.88
2017-11-11T21:41:13.431Z,95954.27
2017-11-11T21:43:39.521Z,95949.38
2017-11-11T21:46:06.058Z,95957.88
2017-11-11T21:48:32.210Z,95963.73
2017-11-11T21:50:58.337Z,95967.17
2017-11-11T21:53:24.867Z,95967.28
2017-11-11T21:55:50.901Z,95958.42
2017-11-11T21:58:17.124Z,95955.72
2017-11-11T22:00:43.267Z,95956.19
2017-11-11T22:03:09.376Z,95957.96
2017-11-11T22:05:35.916Z,95961.86
2017-11-11T22:08:02.011Z,95967.56
2017-11-11T22:10:28.121Z,95969.56
2017-11-11T22:12:54.260Z,95964.78
2017-11-11T22:15:20.321Z,95972.57
2017-11-11T22:17:46.796Z,95980.70
2017-11-11T22:20:12.956Z,95978.70
2017-11-11T22:22:39.183Z,95980.23
2017-11-11T22:25:05.716Z,95983.85
2017-11-11T22:27:31.850Z,95989.26
2017-11-11T22:29:58.289Z,95985.36
2017-11-11T22:32:24.423Z,95994.05
2017-11-11T22:34:50.507Z,95986.91
2017-11-11T22:37:16.609Z,95987.56
2017-11-11T22:39:42.681Z,95983.55
2017-11-11T22:42:09.164Z,95986.02
2017-11-11T22:44:35.295Z,95987.86
2017-11-11T22:47:01.448Z,95994.71
2017-11-11T22:49:27.534Z,95988.94
2017-11-11T22:51:53.598Z,95997.19
2017-11-11T22:54:20.030Z,95990.17
2017-11-11T22:56:46.057Z,95998.34
2017-11-11T22:59:12.173Z,95987.64
2017-11-11T23:01:38.277Z,95998.45
2017-11-11T23:04:04.388Z,95995.88
2017-11-11T23:06:30.819Z,95996.27
2017-11-11T23:08:57.005Z,96003.36
2017-11-11T23:11:23.118Z,96003.83
2017-11-11T23:13:49.251Z,96006.00
2017-11-11T23:16:15.389Z,96000.54
2017-11-11T23:18:41.865Z,96007.83
2017-11-11T23:21:07.960Z,96004.52
2017-11-11T23:23:34.045Z,96014.27
2017-11-11T23:26:00.493Z,96009.95
2017-11-11T23:28:26.608Z,96022.81
2017-11-11T23:30:52.708Z,96019.88
2017-11-11T23:33:18.787Z,96015.64
2017-11-11T23:35:44.894Z,96016.41
2017-11-11T23:38:11.312Z,96028.47
2017-11-11T23:40:37.380Z,96022.66
2017-11-11T23:43:03.478Z,96020.61
2017-11-11T23:45:30.012Z,96016.22
2017-11-11T23:47:56.160Z,96018.95
2017-11-11T23:50:22.292Z,96027.52
2017-11-11T23:52:48.369Z,96010.08
2017-11-11T23:55:14.483Z,96020.49
2017-11-11T23:57:40.860Z,96021.16
